首页
METAR-TAF:

METAR-TAF

机场 :

Rochester International Airport

羅徹斯特, 明尼蘇達州, 美国

纬度: 43-54-15N, 经度: 092-29-30W, 海拔: 401米

当前天气观测

该预报发布于20分钟前的20:54 UTC
温度 24°C
湿度 44%
气压 1019 hPa
能見度: 16.1公里
天空无云

METAR: KRST 142054Z 10SM CLR 24/11 A3008 RMK AO2 SLP181 T02440111 58003

时间: 16:14 (21:14 UTC)

预报

该预报发布于3小时和46分钟前的17:28 UTC
预报有效从14日的 18点(UTC)到 15日的 18点(UTC)
风速9节,风向北转西北
能見度: 10公里
少量云层高于5000英尺
从 15日的 0300点(UTC)
风速7节,风向东南
能見度: 10公里
散云层高于20000英尺
从 15日的 1200点(UTC)
风速11节,风向
能見度: 10公里
散云层高于8000英尺
多云层高于10000英尺

TAF: KRST 141728Z 1418/1518 33009KT P6SM FEW050 FM150300 14007KT P6SM SCT200 FM151200 17011KT P6SM SCT080 BKN100

超过4000个机场的气象观测和天气预报(METAR&TAF报告)。

可查询的气象台以黄色和红色小点在地图上表示。

将鼠标移到小点上方,可查看气象台名称。

然后点击查看天气观测和预报。

如需切换地图:点击带黑十字的绿色按钮放大地图;点击带横线的绿色按钮缩小地图;或者点击绿色箭头查看邻近地区的地图。


METAR-TAF: